Time;durP1;ratioP1;P1;durP2;ratioP2;P2;SDS_P1;SDS_P2;PMS_P1;PMS_P2;Temp;Humidity;BMP_temperature;BMP_pressure;BME280_temperature;BME280_humidity;BME280_pressure;Samples;Min_cycle;Max_cycle;Signal;HPM_P1;HPM_P2
2023/03/07 00:00:31;;;;;;;14.87;12.63;;;;;;;7.46;45.79;96682.91;8417023;28;20423;-69
2023/03/07 00:04:36;;;;;;;16.13;13.60;;;;;;;7.44;45.68;96671.88;8417235;28;20227;-68
2023/03/07 00:08:38;;;;;;;14.97;12.83;;;;;;;7.35;45.86;96669.75;8417341;28;20403;-68
2023/03/07 00:12:41;;;;;;;16.47;13.37;;;;;;;7.39;46.05;96671.28;8416479;28;20232;-68
2023/03/07 00:16:44;;;;;;;15.13;13.23;;;;;;;7.48;46.00;96663.06;8416952;28;20343;-68
2023/03/07 00:20:58;;;;;;;16.17;13.53;;;;;;;7.20;46.73;96664.50;8416695;28;20236;-68
2023/03/07 00:25:00;;;;;;;15.07;13.20;;;;;;;6.82;48.00;96657.00;8416623;28;20220;-69
2023/03/07 00:29:03;;;;;;;16.53;14.73;;;;;;;6.93;47.78;96658.19;8416556;28;20232;-68
2023/03/07 00:33:06;;;;;;;16.20;13.27;;;;;;;6.72;48.42;96657.53;8416572;28;20228;-68
2023/03/07 00:37:10;;;;;;;15.90;14.13;;;;;;;7.13;47.38;96660.59;8416442;28;20231;-68
2023/03/07 00:41:14;;;;;;;17.40;13.80;;;;;;;6.85;47.89;96638.84;8415173;28;20228;-68
2023/03/07 00:45:17;;;;;;;16.67;13.80;;;;;;;7.32;46.92;96644.19;8416033;28;20532;-68
2023/03/07 00:49:20;;;;;;;17.10;14.17;;;;;;;7.38;47.12;96641.28;8416221;28;20228;-68
2023/03/07 00:53:24;;;;;;;16.87;14.20;;;;;;;7.50;46.62;96626.91;8415851;28;20232;-68
2023/03/07 00:57:27;;;;;;;17.70;14.53;;;;;;;7.41;46.94;96626.50;8415551;28;20228;-68
2023/03/07 01:01:30;;;;;;;16.47;14.13;;;;;;;6.97;47.68;96615.97;8415464;28;20327;-68
2023/03/07 01:05:32;;;;;;;16.30;13.43;;;;;;;7.23;47.51;96601.72;8415398;28;20558;-68
2023/03/07 01:09:36;;;;;;;16.20;14.20;;;;;;;7.37;46.99;96595.84;8415367;28;20535;-68
2023/03/07 01:13:39;;;;;;;17.37;13.70;;;;;;;7.28;47.32;96588.63;8415049;28;20255;-68
2023/03/07 01:17:42;;;;;;;16.83;13.53;;;;;;;7.28;47.28;96592.00;8414697;28;20519;-68
2023/03/07 01:21:45;;;;;;;15.33;13.30;;;;;;;7.27;46.81;96592.09;8414697;28;20254;-68
2023/03/07 01:25:49;;;;;;;16.53;13.57;;;;;;;7.46;46.58;96579.88;8414715;28;20432;-68
2023/03/07 01:29:51;;;;;;;15.07;13.37;;;;;;;7.47;46.41;96585.88;8414770;28;20225;-69
2023/03/07 01:33:57;;;;;;;15.23;13.20;;;;;;;7.48;46.31;96580.63;8414578;28;20236;-68
2023/03/07 01:38:00;;;;;;;14.13;12.53;;;;;;;7.50;46.31;96575.41;8414332;28;20239;-68
2023/03/07 01:42:05;;;;;;;14.73;13.13;;;;;;;7.04;46.64;96568.38;8414093;28;20224;-68
2023/03/07 01:46:37;;;;;;;15.30;13.10;;;;;;;7.47;46.00;96565.28;8414109;28;20228;-68
2023/03/07 01:50:40;;;;;;;16.47;13.00;;;;;;;7.24;46.44;96562.19;8414071;28;20473;-68
2023/03/07 01:54:47;;;;;;;13.83;12.33;;;;;;;7.29;46.31;96552.50;8413036;28;20228;-67
2023/03/07 01:58:53;;;;;;;14.63;12.37;;;;;;;7.43;45.95;96551.72;8413683;28;20234;-67
2023/03/07 02:03:02;;;;;;;16.63;12.60;;;;;;;7.39;45.83;96553.63;8413601;28;20232;-67
2023/03/07 02:07:05;;;;;;;15.60;13.37;;;;;;;7.33;45.85;96548.81;8413461;28;20220;-68
2023/03/07 02:11:08;;;;;;;14.60;12.47;;;;;;;7.03;46.73;96543.56;8413600;28;20255;-67
2023/03/07 02:15:14;;;;;;;13.53;12.07;;;;;;;7.09;45.67;96508.94;8413279;28;20230;-67
2023/03/07 02:19:29;;;;;;;13.40;12.00;;;;;;;7.33;45.74;96538.53;8413020;28;20231;-67
2023/03/07 02:23:38;;;;;;;15.97;12.30;;;;;;;7.35;45.82;96534.13;8412860;28;20239;-67
2023/03/07 02:27:49;;;;;;;14.30;12.80;;;;;;;7.31;45.92;96531.78;8412894;28;20232;-67
2023/03/07 02:31:52;;;;;;;13.73;12.23;;;;;;;7.05;46.16;96534.03;8412356;28;20228;-67
2023/03/07 02:35:57;;;;;;;14.57;12.67;;;;;;;7.07;46.86;96539.91;8412742;28;20402;-67
2023/03/07 02:40:05;;;;;;;18.57;12.80;;;;;;;6.96;46.98;96521.63;8412602;28;20423;-67
2023/03/07 02:44:09;;;;;;;14.77;12.07;;;;;;;6.76;48.35;96540.66;8412562;28;20240;-67
2023/03/07 02:48:15;;;;;;;15.07;12.20;;;;;;;6.80;48.11;96544.78;8412615;28;20236;-67
2023/03/07 02:52:17;;;;;;;14.87;12.67;;;;;;;6.98;48.34;96537.81;8412299;28;20236;-67
2023/03/07 02:56:20;;;;;;;14.77;12.50;;;;;;;6.88;49.72;96532.31;8412103;28;20232;-67
2023/03/07 03:00:24;;;;;;;17.93;14.20;;;;;;;7.02;49.14;96534.16;8412197;28;20588;-67
2023/03/07 03:04:27;;;;;;;18.17;13.67;;;;;;;6.76;50.17;96528.66;8411533;28;20239;-67
2023/03/07 03:08:29;;;;;;;17.17;12.87;;;;;;;6.71;51.29;96524.66;8412306;28;20238;-67
2023/03/07 03:12:32;;;;;;;14.73;13.17;;;;;;;6.85;51.20;96522.19;8411971;28;20246;-66
2023/03/07 03:16:37;;;;;;;14.70;12.60;;;;;;;6.97;51.46;96525.88;8412032;28;20228;-68
2023/03/07 03:20:40;;;;;;;14.83;12.67;;;;;;;6.73;52.34;96526.22;8411811;28;20303;-67
2023/03/07 03:24:42;;;;;;;16.50;13.23;;;;;;;6.84;52.57;96518.78;8411146;28;20235;-67
2023/03/07 03:28:45;;;;;;;17.40;13.17;;;;;;;6.28;53.13;96452.28;8411922;28;20232;-66
2023/03/07 03:32:50;;;;;;;17.13;13.40;;;;;;;6.88;52.75;96514.31;8411582;28;20385;-66
2023/03/07 03:36:52;;;;;;;16.50;13.40;;;;;;;6.50;53.86;96498.31;8411384;28;20270;-66
2023/03/07 03:40:55;;;;;;;16.50;13.70;;;;;;;6.74;53.70;96509.03;8411161;28;20236;-66
2023/03/07 03:44:58;;;;;;;16.23;13.07;;;;;;;6.78;53.62;96495.97;8411670;28;20220;-67
2023/03/07 03:49:02;;;;;;;15.60;13.20;;;;;;;7.04;52.78;96494.59;8411425;28;20529;-67
2023/03/07 03:53:05;;;;;;;15.27;13.67;;;;;;;6.91;52.94;96485.84;8411443;28;20400;-68
2023/03/07 03:57:07;;;;;;;15.43;12.77;;;;;;;6.94;52.56;96487.41;8411265;28;20232;-67
2023/03/07 04:01:12;;;;;;;14.50;12.77;;;;;;;6.79;52.71;96481.34;8411057;28;20232;-66
2023/03/07 04:05:17;;;;;;;17.40;13.20;;;;;;;6.99;52.10;96478.53;8411069;28;20239;-66
2023/03/07 04:09:20;;;;;;;15.93;13.20;;;;;;;6.89;52.36;96471.38;8411082;28;20232;-67
2023/03/07 04:13:23;;;;;;;15.60;12.63;;;;;;;6.80;52.19;96472.72;8410904;28;20258;-67
2023/03/07 04:17:26;;;;;;;15.30;13.70;;;;;;;6.85;51.95;96476.72;8413601;28;20234;-66
2023/03/07 04:21:30;;;;;;;15.80;13.03;;;;;;;6.74;52.23;96467.88;8416646;28;20243;-67
2023/03/07 04:25:33;;;;;;;15.90;12.93;;;;;;;6.85;51.87;96470.72;8416720;28;20574;-66
2023/03/07 04:29:36;;;;;;;15.67;12.80;;;;;;;6.33;53.24;96464.00;8416601;28;20343;-68
2023/03/07 04:33:38;;;;;;;15.33;12.53;;;;;;;6.44;53.17;96471.97;8416457;28;20232;-67
2023/03/07 04:37:43;;;;;;;15.10;13.00;;;;;;;6.32;52.97;96454.63;8415793;28;20224;-67
2023/03/07 04:41:46;;;;;;;14.37;12.53;;;;;;;6.62;52.75;96466.78;8415908;28;20236;-66
2023/03/07 04:45:49;;;;;;;17.00;13.70;;;;;;;6.59;52.45;96466.97;8415999;28;20445;-67
2023/03/07 04:49:51;;;;;;;16.67;13.23;;;;;;;6.63;52.30;96461.56;8415741;28;20220;-67
2023/03/07 04:53:55;;;;;;;14.13;12.23;;;;;;;6.72;52.10;96459.41;8415548;28;20231;-70
2023/03/07 04:57:59;;;;;;;14.77;12.53;;;;;;;6.84;52.25;96459.59;8415412;28;20240;-67
2023/03/07 05:02:01;;;;;;;13.50;11.97;;;;;;;6.37;53.41;96454.38;8415548;28;20241;-67
2023/03/07 05:06:06;;;;;;;13.47;11.53;;;;;;;6.51;53.07;96449.38;8415159;28;20228;-66
2023/03/07 05:10:11;;;;;;;15.57;12.60;;;;;;;6.62;52.62;96456.50;8414976;28;20220;-66
2023/03/07 05:14:14;;;;;;;12.67;10.90;;;;;;;6.72;52.26;96436.25;8415274;28;20514;-66
2023/03/07 05:18:17;;;;;;;12.33;11.03;;;;;;;6.74;52.41;96448.16;8415149;28;20225;-67
2023/03/07 05:22:20;;;;;;;12.67;11.20;;;;;;;6.59;52.76;96448.97;8414819;28;20425;-67
2023/03/07 05:26:24;;;;;;;12.53;11.03;;;;;;;6.68;52.64;96458.75;8414284;28;20232;-67
2023/03/07 05:30:28;;;;;;;15.03;12.10;;;;;;;6.70;51.99;96458.66;8414236;28;20556;-66
2023/03/07 05:34:30;;;;;;;12.73;11.30;;;;;;;6.63;52.27;96446.13;8414613;28;20227;-67
2023/03/07 05:38:33;;;;;;;12.53;10.70;;;;;;;6.47;52.78;96442.69;8414300;28;20239;-67
2023/03/07 05:42:40;;;;;;;12.43;11.13;;;;;;;6.50;52.42;96416.81;8414285;28;20231;-67
2023/03/07 05:46:43;;;;;;;11.47;10.00;;;;;;;6.78;51.73;96425.66;8413531;28;20228;-67
2023/03/07 05:50:46;;;;;;;12.50;10.93;;;;;;;6.60;52.36;96438.56;8413692;28;20411;-67
2023/03/07 05:54:48;;;;;;;12.60;10.13;;;;;;;6.28;53.18;96418.84;8413297;28;20236;-68
2023/03/07 05:58:54;;;;;;;13.13;11.67;;;;;;;6.22;53.31;96425.97;8413415;28;20228;-67
2023/03/07 06:02:57;;;;;;;12.33;10.43;;;;;;;6.60;52.34;96422.31;8413266;28;20238;-67
2023/03/07 06:07:03;;;;;;;13.17;11.77;;;;;;;6.53;52.86;96419.25;8413271;28;20228;-69
2023/03/07 06:11:06;;;;;;;12.13;10.90;;;;;;;6.37;53.37;96420.94;8413126;28;20313;-67
2023/03/07 06:15:11;;;;;;;12.67;11.37;;;;;;;6.61;52.49;96431.72;8413322;28;20228;-68
2023/03/07 06:19:14;;;;;;;12.87;11.33;;;;;;;6.40;53.13;96431.91;8412985;28;20239;-67
2023/03/07 06:23:17;;;;;;;12.43;11.13;;;;;;;6.69;52.41;96410.72;8412947;28;20232;-67
2023/03/07 06:27:20;;;;;;;13.23;11.83;;;;;;;6.59;52.79;96434.34;8412657;28;20223;-67
2023/03/07 06:31:24;;;;;;;13.23;11.83;;;;;;;6.73;52.92;96428.47;8412733;28;20231;-67
2023/03/07 06:35:27;;;;;;;13.27;11.43;;;;;;;6.58;53.26;96442.97;8412731;28;20236;-67
2023/03/07 06:39:31;;;;;;;15.23;12.77;;;;;;;6.68;52.99;96434.75;8411576;28;20239;-67
2023/03/07 06:43:35;;;;;;;14.47;12.93;;;;;;;6.84;52.39;96433.88;8412431;28;20335;-67
2023/03/07 06:47:40;;;;;;;14.07;12.57;;;;;;;6.64;52.37;96416.94;8412623;28;20419;-67
2023/03/07 06:51:43;;;;;;;15.70;12.20;;;;;;;7.06;51.83;96435.28;8411437;28;20238;-67
2023/03/07 06:55:48;;;;;;;15.47;13.20;;;;;;;6.95;51.70;96433.31;8412147;28;20395;-67
2023/03/07 06:59:53;;;;;;;13.07;11.47;;;;;;;7.01;52.13;96424.41;8412136;28;20240;-68
2023/03/07 07:03:57;;;;;;;13.87;12.37;;;;;;;6.97;51.73;96423.75;8412119;28;20282;-67
2023/03/07 07:08:00;;;;;;;15.33;12.50;;;;;;;6.92;51.14;96430.06;8412228;28;20232;-68
2023/03/07 07:12:04;;;;;;;13.50;11.87;;;;;;;6.58;52.25;96422.38;8411940;28;20228;-67
2023/03/07 07:16:08;;;;;;;13.90;12.30;;;;;;;7.29;50.48;96430.59;8412099;28;20227;-67
2023/03/07 07:20:14;;;;;;;13.00;11.60;;;;;;;7.22;50.27;96423.22;8412235;28;20232;-67
2023/03/07 07:24:17;;;;;;;13.40;12.00;;;;;;;7.55;49.88;96421.41;8411769;28;20548;-67
2023/03/07 07:28:20;;;;;;;15.67;12.10;;;;;;;7.37;49.90;96426.69;8411795;28;20234;-68
2023/03/07 07:32:23;;;;;;;12.97;11.10;;;;;;;7.56;49.00;96389.59;8411891;28;20224;-67
2023/03/07 07:36:29;;;;;;;13.50;11.57;;;;;;;7.38;49.62;96425.75;8411759;28;20334;-67
2023/03/07 07:40:32;;;;;;;14.10;11.07;;;;;;;7.60;49.25;96422.81;8411497;28;20236;-67
2023/03/07 07:44:35;;;;;;;12.07;10.77;;;;;;;7.45;49.47;96415.97;8411739;28;20239;-67
2023/03/07 07:48:39;;;;;;;13.60;11.47;;;;;;;7.51;49.10;96418.19;8411488;28;20232;-67
2023/03/07 07:52:43;;;;;;;12.87;10.90;;;;;;;7.45;49.62;96426.25;8415159;28;20239;-68
2023/03/07 07:56:46;;;;;;;12.57;10.23;;;;;;;7.67;48.73;96422.47;8417921;28;20416;-67
2023/03/07 08:00:49;;;;;;;11.27;10.03;;;;;;;7.71;48.55;96421.38;8417695;28;20231;-67
2023/03/07 08:04:52;;;;;;;12.07;10.23;;;;;;;7.59;49.03;96430.63;8417595;28;20511;-67
2023/03/07 08:08:58;;;;;;;7.60;6.30;;;;;;;10.60;73.49;96430.81;8416287;28;20235;-67
2023/03/07 08:13:01;;;;;;;9.60;8.43;;;;;;;9.69;57.64;96419.59;8417244;28;20550;-68
2023/03/07 08:17:04;;;;;;;10.07;9.07;;;;;;;9.35;46.26;96420.94;8417268;28;20225;-67
2023/03/07 08:21:07;;;;;;;10.97;9.70;;;;;;;8.15;47.38;96415.38;8417315;28;20223;-67
2023/03/07 08:25:17;;;;;;;11.87;9.73;;;;;;;8.59;46.46;96417.06;8416963;28;20224;-66
2023/03/07 08:29:19;;;;;;;10.27;8.93;;;;;;;8.60;47.83;96413.56;8416991;28;20227;-67
2023/03/07 08:33:22;;;;;;;9.73;8.73;;;;;;;8.27;47.21;96408.66;8417045;28;20456;-67
2023/03/07 08:37:25;;;;;;;10.37;8.43;;;;;;;8.31;48.20;96416.13;8416776;28;20224;-68
2023/03/07 08:41:29;;;;;;;9.53;8.50;;;;;;;8.26;47.25;96409.56;8416321;28;20243;-67
2023/03/07 08:45:32;;;;;;;10.37;8.63;;;;;;;7.98;47.46;96409.47;8416481;28;20239;-66
2023/03/07 08:49:35;;;;;;;10.03;9.03;;;;;;;8.36;46.62;96406.34;8416389;28;20254;-66
2023/03/07 08:53:41;;;;;;;10.60;9.50;;;;;;;8.15;46.65;96399.91;8415804;28;20228;-67
2023/03/07 08:57:46;;;;;;;10.77;9.00;;;;;;;7.78;46.03;96301.56;8415253;28;20223;-67
2023/03/07 09:01:49;;;;;;;10.07;8.73;;;;;;;8.41;45.99;96395.75;8415127;28;20247;-67
2023/03/07 09:05:51;;;;;;;9.83;8.40;;;;;;;8.02;47.23;96402.38;8415704;28;20398;-67
2023/03/07 09:09:54;;;;;;;8.80;7.90;;;;;;;8.64;45.35;96404.69;8415246;28;20224;-68
2023/03/07 09:13:58;;;;;;;9.07;8.13;;;;;;;8.64;44.69;96368.56;8415387;28;20251;-67
2023/03/07 09:18:01;;;;;;;8.67;7.80;;;;;;;9.05;44.56;96374.66;8415525;28;20243;-68
2023/03/07 09:22:04;;;;;;;8.20;7.50;;;;;;;9.01;44.04;96363.69;8415024;28;20220;-68
2023/03/07 09:26:07;;;;;;;8.70;7.80;;;;;;;9.24;43.48;96375.13;8415378;28;20228;-68
2023/03/07 09:30:13;;;;;;;9.20;8.30;;;;;;;8.39;44.48;96366.63;8414767;28;20221;-68
2023/03/07 09:34:17;;;;;;;9.37;8.40;;;;;;;9.06;43.74;96371.94;8414704;28;20401;-67
2023/03/07 09:38:19;;;;;;;9.37;8.10;;;;;;;9.12;43.67;96370.72;8414552;28;20438;-68
2023/03/07 09:42:27;;;;;;;8.83;7.93;;;;;;;8.95;43.22;96375.25;8414474;28;20255;-68
2023/03/07 09:46:37;;;;;;;8.47;7.67;;;;;;;8.74;43.51;96361.94;8414595;28;20232;-68
2023/03/07 09:50:46;;;;;;;9.70;7.70;;;;;;;8.89;43.13;96359.28;8413897;28;20565;-67
2023/03/07 09:54:54;;;;;;;10.10;7.87;;;;;;;9.27;42.50;96353.44;8447341;28;20231;-67
2023/03/07 09:59:02;;;;;;;10.00;7.90;;;;;;;9.02;43.35;96351.59;8447406;28;20227;-67
2023/03/07 10:03:24;;;;;;;9.30;7.97;;;;;;;9.25;42.67;96345.78;8447494;28;20231;-68
2023/03/07 10:07:28;;;;;;;8.53;7.60;;;;;;;9.07;42.64;96336.66;8447063;28;20497;-68
2023/03/07 10:12:17;;;;;;;8.37;7.57;;;;;;;9.36;41.93;96350.25;8447180;28;20263;-68
2023/03/07 10:16:25;;;;;;;7.83;7.03;;;;;;;9.23;41.55;96341.66;8379670;28;20381;-68
2023/03/07 10:20:36;;;;;;;8.03;7.20;;;;;;;9.38;42.05;96336.31;8446869;28;20243;-69
2023/03/07 10:24:50;;;;;;;8.67;7.37;;;;;;;9.73;40.54;96320.22;8446630;28;20420;-68
2023/03/07 10:28:53;;;;;;;9.23;7.60;;;;;;;9.83;40.65;96317.03;8431327;28;20215;-69
2023/03/07 10:32:57;;;;;;;8.77;7.40;;;;;;;9.75;40.89;96309.78;8446340;28;20229;-69
2023/03/07 10:37:04;;;;;;;7.83;7.00;;;;;;;9.79;40.36;96316.41;8446438;28;20251;-68
2023/03/07 10:41:14;;;;;;;13.50;7.07;;;;;;;9.65;39.76;96298.41;8445685;28;20226;-69
2023/03/07 10:45:17;;;;;;;8.30;7.07;;;;;;;10.13;39.04;96290.84;8444106;28;20535;-68
2023/03/07 10:49:25;;;;;;;7.40;6.70;;;;;;;9.56;39.51;96290.34;8446115;28;20223;-68
2023/03/07 10:53:32;;;;;;;7.27;6.10;;;;;;;10.45;37.23;96296.38;8446007;28;20243;-68
2023/03/07 10:57:34;;;;;;;6.70;6.00;;;;;;;10.42;37.05;96293.19;8446006;28;20325;-69
2023/03/07 11:01:38;;;;;;;6.57;5.87;;;;;;;10.32;36.56;96280.06;8445555;28;20453;-69
2023/03/07 11:05:47;;;;;;;7.27;6.20;;;;;;;10.28;36.83;96286.34;8412123;28;20224;-68
2023/03/07 11:09:51;;;;;;;9.37;6.40;;;;;;;10.63;36.81;96277.91;8412301;28;20250;-68
2023/03/07 11:14:10;;;;;;;6.43;5.83;;;;;;;9.97;36.29;96270.34;8412564;28;20697;-69
2023/03/07 11:18:27;;;;;;;5.83;5.30;;;;;;;10.30;36.34;96272.41;8411977;28;20237;-69
2023/03/07 11:22:32;;;;;;;6.73;5.93;;;;;;;10.03;36.62;96266.53;8412540;28;20226;-66
2023/03/07 11:26:39;;;;;;;7.27;5.53;;;;;;;9.76;36.46;96272.66;8414691;28;20291;-69
2023/03/07 11:30:45;;;;;;;6.03;5.43;;;;;;;9.88;36.73;96250.31;8418392;28;20427;-67
2023/03/07 11:34:52;;;;;;;5.83;5.23;;;;;;;9.87;36.35;96256.41;8418631;28;20343;-68
2023/03/07 11:39:00;;;;;;;6.30;5.70;;;;;;;9.76;36.65;96228.72;8418400;28;20525;-68
2023/03/07 11:43:13;;;;;;;6.00;5.40;;;;;;;9.91;37.05;96240.56;8418436;28;20235;-68
2023/03/07 11:47:29;;;;;;;7.03;6.33;;;;;;;9.68;36.55;96249.09;8418239;28;20529;-68
2023/03/07 11:51:42;;;;;;;6.47;5.50;;;;;;;9.83;36.25;96235.13;8417640;28;20528;-67
2023/03/07 11:55:54;;;;;;;7.90;5.90;;;;;;;9.87;36.19;96227.97;8417213;28;20240;-68
2023/03/07 12:00:16;;;;;;;7.00;5.67;;;;;;;9.98;35.75;96228.06;8417512;28;20412;-67
2023/03/07 12:04:47;;;;;;;5.70;5.20;;;;;;;10.14;35.92;96225.22;8417578;28;20504;-68
2023/03/07 12:09:03;;;;;;;6.17;5.17;;;;;;;10.14;35.95;96214.88;8417044;28;20256;-68
2023/03/07 12:13:12;;;;;;;5.67;5.17;;;;;;;10.21;36.19;96225.63;8417463;28;20225;-68
2023/03/07 12:17:28;;;;;;;5.60;5.10;;;;;;;9.97;35.11;96208.31;8417338;28;20236;-69
2023/03/07 12:21:46;;;;;;;5.53;4.70;;;;;;;9.31;35.95;96212.81;8417332;28;20251;-67
2023/03/07 12:25:51;;;;;;;5.63;4.67;;;;;;;9.62;35.85;96216.75;8416519;28;20229;-68
2023/03/07 12:29:57;;;;;;;5.87;4.93;;;;;;;9.59;36.31;96215.19;8417110;28;20228;-68
2023/03/07 12:34:04;;;;;;;4.93;4.53;;;;;;;8.97;36.05;96235.72;8416958;28;20231;-69
2023/03/07 12:38:10;;;;;;;7.17;4.57;;;;;;;8.85;35.78;96221.03;8415238;28;20379;-67
2023/03/07 12:42:17;;;;;;;5.90;5.13;;;;;;;9.01;35.54;96211.34;8416542;28;20236;-67
2023/03/07 12:46:24;;;;;;;5.33;4.63;;;;;;;8.93;36.07;96211.00;8416189;28;20255;-68
2023/03/07 12:50:32;;;;;;;5.10;4.60;;;;;;;9.44;35.45;96231.72;8415939;28;20236;-67
2023/03/07 12:54:37;;;;;;;5.27;4.30;;;;;;;9.25;35.42;96215.81;8415650;28;20243;-68
2023/03/07 12:58:44;;;;;;;5.00;4.50;;;;;;;9.09;35.96;96214.25;8415702;28;20229;-68
2023/03/07 13:02:51;;;;;;;5.13;4.67;;;;;;;9.48;36.11;96212.53;8448541;28;20231;-68
2023/03/07 13:07:02;;;;;;;4.77;4.37;;;;;;;9.36;35.53;96192.66;8448659;28;20228;-68
2023/03/07 13:11:05;;;;;;;6.27;4.73;;;;;;;9.37;35.65;96207.25;8448832;28;20227;-67
2023/03/07 13:16:01;;;;;;;4.73;4.23;;;;;;;9.65;33.87;96206.19;8448563;28;20381;-67
2023/03/07 13:20:11;;;;;;;5.10;4.70;;;;;;;9.88;33.56;96175.31;8414924;28;20228;-67
2023/03/07 13:24:34;;;;;;;5.23;4.47;;;;;;;10.28;32.78;96183.69;8414737;28;20542;-67
2023/03/07 13:28:50;;;;;;;5.27;4.40;;;;;;;9.62;33.17;96196.06;8414625;28;20244;-68
2023/03/07 13:32:58;;;;;;;5.87;4.70;;;;;;;9.83;32.55;96188.59;8414353;28;20225;-67
2023/03/07 13:37:47;;;;;;;7.60;4.90;;;;;;;10.07;32.42;96190.38;8413861;28;20239;-68
2023/03/07 13:41:50;;;;;;;5.00;4.60;;;;;;;9.82;32.81;96163.66;8413893;28;20259;-68
2023/03/07 13:45:55;;;;;;;5.83;4.83;;;;;;;9.94;32.63;96175.72;8414404;28;20562;-68
2023/03/07 13:50:37;;;;;;;5.90;4.90;;;;;;;9.59;33.33;96173.84;8413896;28;20263;-68
2023/03/07 13:54:40;;;;;;;5.83;5.33;;;;;;;9.48;33.67;96163.44;8413810;28;20244;-68
2023/03/07 13:58:47;;;;;;;6.37;5.10;;;;;;;9.85;33.44;96170.38;8413361;28;20228;-67
2023/03/07 14:02:49;;;;;;;5.90;5.17;;;;;;;9.87;33.52;96158.16;8413676;28;20236;-67
2023/03/07 14:06:57;;;;;;;5.43;4.93;;;;;;;10.62;31.85;96172.69;8413434;28;20255;-68
2023/03/07 14:11:00;;;;;;;5.60;5.10;;;;;;;10.08;32.33;96167.00;8413045;28;20237;-68
2023/03/07 14:15:15;;;;;;;5.30;4.67;;;;;;;10.42;31.89;96162.03;8413316;28;20229;-68
2023/03/07 14:19:33;;;;;;;5.53;5.03;;;;;;;10.27;32.24;96148.41;8413216;28;20227;-67
2023/03/07 14:23:59;;;;;;;6.97;4.67;;;;;;;11.33;30.97;96163.09;8412683;28;20553;-68
2023/03/07 14:28:05;;;;;;;5.83;4.63;;;;;;;11.43;30.31;96158.84;8412529;28;20237;-67
2023/03/07 14:32:20;;;;;;;5.20;4.70;;;;;;;11.26;30.25;96087.56;8412779;28;20222;-68
2023/03/07 14:36:25;;;;;;;6.07;5.47;;;;;;;11.00;30.65;96163.84;8412561;28;20242;-68
2023/03/07 14:40:36;;;;;;;7.23;5.23;;;;;;;11.86;30.06;96154.69;8412589;28;20278;-67
2023/03/07 14:45:00;;;;;;;7.03;6.03;;;;;;;11.66;29.79;96159.66;8412756;28;20224;-68
2023/03/07 14:49:09;;;;;;;6.63;5.93;;;;;;;12.10;29.85;96155.38;8443916;28;20231;-68
2023/03/07 14:53:16;;;;;;;6.17;5.60;;;;;;;11.82;29.34;96148.94;8445679;28;20253;-68
2023/03/07 14:57:26;;;;;;;5.77;5.20;;;;;;;11.74;29.95;96152.09;8445433;28;20239;-68
2023/03/07 15:01:32;;;;;;;5.57;5.07;;;;;;;11.72;30.24;96163.53;8444636;28;20231;-68
2023/03/07 15:05:37;;;;;;;6.47;5.43;;;;;;;11.41;30.66;96146.94;8445358;28;20232;-67
2023/03/07 15:09:40;;;;;;;7.40;5.40;;;;;;;11.41;30.61;96145.19;8445375;28;20228;-68
2023/03/07 15:13:46;;;;;;;6.57;5.30;;;;;;;11.44;30.17;96144.09;8411587;28;20405;-68
2023/03/07 15:17:50;;;;;;;5.77;4.97;;;;;;;11.45;30.90;96143.19;8412089;28;20231;-68
2023/03/07 15:21:56;;;;;;;5.60;5.00;;;;;;;11.98;30.38;96147.75;8411734;28;20225;-68
2023/03/07 15:26:03;;;;;;;6.60;5.90;;;;;;;11.05;31.47;96143.63;8411728;28;20234;-68
2023/03/07 15:30:21;;;;;;;5.93;5.40;;;;;;;10.80;32.07;96148.03;8411901;28;20230;-68
2023/03/07 15:34:25;;;;;;;7.43;5.73;;;;;;;10.56;32.41;96148.88;8411808;28;20231;-67
2023/03/07 15:38:28;;;;;;;6.60;5.90;;;;;;;10.66;32.12;96149.06;8411123;28;20411;-68
2023/03/07 15:42:31;;;;;;;5.80;5.10;;;;;;;10.22;32.96;96145.31;8411531;28;20427;-68
2023/03/07 15:46:38;;;;;;;6.27;5.67;;;;;;;10.05;33.40;96156.03;8411286;28;20324;-67
2023/03/07 15:50:41;;;;;;;6.60;5.63;;;;;;;9.89;34.08;96151.94;8411092;28;20226;-68
2023/03/07 15:54:44;;;;;;;9.47;6.40;;;;;;;9.95;33.81;96151.50;8410817;28;20234;-68
2023/03/07 15:58:47;;;;;;;6.30;5.33;;;;;;;9.79;33.93;96158.72;8411252;28;20225;-67
2023/03/07 16:02:51;;;;;;;6.63;5.93;;;;;;;9.29;35.20;96157.84;8411196;28;20247;-68
2023/03/07 16:06:54;;;;;;;7.33;6.50;;;;;;;9.70;34.53;96154.19;8410875;28;20239;-68
2023/03/07 16:10:59;;;;;;;7.87;7.17;;;;;;;9.33;34.79;96148.97;8411135;28;20413;-67
2023/03/07 16:15:03;;;;;;;6.47;5.73;;;;;;;9.44;34.73;96154.22;8417227;28;20228;-68
2023/03/07 16:19:09;;;;;;;6.97;6.27;;;;;;;9.41;34.91;96156.19;8417021;28;20229;-67
2023/03/07 16:23:12;;;;;;;11.90;10.23;;;;;;;9.19;35.51;96162.81;8416769;28;20233;-67
2023/03/07 16:27:17;;;;;;;6.70;6.03;;;;;;;9.27;35.59;96159.69;8416604;28;20235;-67
2023/03/07 16:31:20;;;;;;;11.83;10.17;;;;;;;9.15;35.36;96130.38;8416848;28;20224;-68
2023/03/07 16:35:26;;;;;;;7.83;6.73;;;;;;;9.31;35.57;96159.41;8416669;28;20229;-67
2023/03/07 16:39:30;;;;;;;10.00;9.00;;;;;;;9.11;35.75;96158.16;8416341;28;20236;-67
2023/03/07 16:43:35;;;;;;;8.77;7.10;;;;;;;9.12;35.78;96156.38;8416358;28;20232;-68
2023/03/07 16:47:37;;;;;;;6.80;5.23;;;;;;;9.00;36.43;96163.22;8416037;28;20232;-68
2023/03/07 16:51:41;;;;;;;5.60;5.07;;;;;;;9.04;36.25;96169.81;8415772;28;20258;-67
2023/03/07 16:55:48;;;;;;;5.90;5.30;;;;;;;8.74;36.84;96173.53;8415541;28;20224;-67
2023/03/07 16:59:51;;;;;;;5.83;5.17;;;;;;;8.87;36.63;96160.63;8415751;28;20236;-67
2023/03/07 17:03:55;;;;;;;6.23;5.63;;;;;;;8.87;36.67;96165.81;8415737;28;20231;-69
2023/03/07 17:08:01;;;;;;;6.40;5.70;;;;;;;9.05;36.22;96168.09;8415378;28;20235;-67
2023/03/07 17:12:07;;;;;;;6.40;5.43;;;;;;;9.12;36.50;96184.78;8415834;28;20220;-68
2023/03/07 17:16:12;;;;;;;6.13;5.27;;;;;;;9.10;36.64;96178.91;8414744;28;20232;-67
2023/03/07 17:20:20;;;;;;;7.03;5.50;;;;;;;8.92;36.64;96183.56;8414895;28;20547;-67
2023/03/07 17:24:24;;;;;;;9.40;6.83;;;;;;;8.89;36.78;96199.22;8414494;28;20532;-67
2023/03/07 17:28:26;;;;;;;6.37;5.77;;;;;;;8.92;37.00;96193.88;8414788;28;20243;-68
2023/03/07 17:32:29;;;;;;;7.40;5.30;;;;;;;9.04;36.87;96203.38;8414890;28;20523;-67
2023/03/07 17:36:32;;;;;;;6.87;5.87;;;;;;;9.10;36.31;96184.94;8414805;28;20243;-67
2023/03/07 17:40:37;;;;;;;6.90;5.37;;;;;;;8.90;36.84;96203.47;8414581;28;20229;-67
2023/03/07 17:44:42;;;;;;;6.43;5.70;;;;;;;9.09;36.67;96200.53;8414385;28;20232;-67
2023/03/07 17:48:45;;;;;;;8.27;5.63;;;;;;;8.74;37.13;96214.81;8446976;28;20235;-68
2023/03/07 17:52:48;;;;;;;8.40;6.17;;;;;;;8.84;37.32;96196.16;8447033;28;20235;-67
2023/03/07 17:56:52;;;;;;;6.97;6.17;;;;;;;8.80;37.25;96224.72;8447214;28;20234;-67
2023/03/07 18:00:54;;;;;;;6.30;5.70;;;;;;;8.80;37.21;96227.31;8447442;28;20238;-68
2023/03/07 18:04:58;;;;;;;6.87;6.17;;;;;;;8.70;37.37;96240.91;8445277;28;20227;-67
2023/03/07 18:09:03;;;;;;;6.40;5.80;;;;;;;8.89;37.34;96231.06;8446649;28;20251;-68
2023/03/07 18:13:08;;;;;;;6.70;5.73;;;;;;;8.48;38.15;96226.81;8447083;28;20226;-67
2023/03/07 18:17:11;;;;;;;7.63;6.13;;;;;;;8.70;37.88;96222.84;8447109;28;20226;-66
2023/03/07 18:21:20;;;;;;;6.87;6.17;;;;;;;8.54;38.55;96223.81;8446743;28;20415;-67
2023/03/07 18:25:23;;;;;;;7.70;5.40;;;;;;;8.69;38.12;96227.19;8446878;28;20242;-68
2023/03/07 18:29:39;;;;;;;7.93;5.93;;;;;;;8.61;38.42;96222.50;8446424;28;20235;-67
2023/03/07 18:33:43;;;;;;;7.63;6.00;;;;;;;8.60;38.94;96220.03;8445850;28;20227;-67
2023/03/07 18:37:45;;;;;;;5.80;5.30;;;;;;;8.46;39.37;96235.56;8445307;28;20236;-67
2023/03/07 18:41:49;;;;;;;6.83;6.13;;;;;;;8.59;39.51;96241.59;8446240;28;20413;-68
2023/03/07 18:45:55;;;;;;;7.63;5.77;;;;;;;8.51;39.80;96241.25;8446173;28;20231;-67
2023/03/07 18:49:58;;;;;;;6.53;5.57;;;;;;;8.54;39.84;96236.72;8446032;28;20235;-67
2023/03/07 18:54:02;;;;;;;8.70;6.00;;;;;;;8.60;39.83;96233.78;8446011;28;20542;-67
2023/03/07 18:58:06;;;;;;;7.03;5.70;;;;;;;8.38;40.22;96238.59;8445662;28;20227;-67
2023/03/07 19:02:12;;;;;;;7.67;6.87;;;;;;;8.38;40.32;96246.34;8445973;28;20231;-67
2023/03/07 19:06:16;;;;;;;7.17;6.03;;;;;;;8.38;40.23;96249.75;8445808;28;20235;-67
2023/03/07 19:10:19;;;;;;;7.37;6.20;;;;;;;8.45;40.44;96246.81;8445408;28;20235;-68
2023/03/07 19:14:22;;;;;;;8.33;5.90;;;;;;;9.12;51.51;96246.78;8445348;28;20238;-65
2023/03/07 19:18:27;;;;;;;9.50;6.20;;;;;;;8.99;42.96;96264.84;8445604;28;20566;-67